Weldon, Arkansas
Current Conditions -  °F | °C
As of 2:56 AM on Monday 24 Nov 2014 (Local Time) from KM19 Reporting Station
Overcast Overcast  
Wind Chill: 51°   Ceiling: 2200
Heat Index: 51°   Visibility: 10mi
Dew Point: 44°   Wind: 24mph
Humidity: 77%   Direction: 290°WNW
Pressure: 29.53"   Gusts: NA
Location:  35.5678°N, 91.2073°W
Report Text: KM19 240856Z AUTO 29021KT 10SM BKN022 OVC034 11/07 A2953 RMK AO2 53054 T01050066 BKN V SCT PK WND 27031/0817 PRESRR SLP998
Loading
Personal Weather Stations






























Interactive Weather Map New forecast layout! Learn more

10-Day Weather Forecast

Advertisements
Track Severe Weather on mobile